createdAt,value
2018-01-03T00:01:22.171Z,2.10
2018-01-03T00:03:50.401Z,2.67
2018-01-03T00:06:17.875Z,3.22
2018-01-03T00:08:46.140Z,3.50
2018-01-03T00:11:14.367Z,2.33
2018-01-03T00:13:41.835Z,2.67
2018-01-03T00:16:10.057Z,2.70
2018-01-03T00:18:37.540Z,3.17
2018-01-03T00:21:05.799Z,2.45
2018-01-03T00:23:34.043Z,2.70
2018-01-03T00:26:01.553Z,2.72
2018-01-03T00:28:28.999Z,3.40
2018-01-03T00:30:56.479Z,2.70
2018-01-03T00:33:24.743Z,2.95
2018-01-03T00:35:52.964Z,3.20
2018-01-03T00:38:20.447Z,3.15
2018-01-03T00:40:48.712Z,3.15
2018-01-03T00:43:16.969Z,2.87
2018-01-03T00:45:45.191Z,2.55
2018-01-03T00:48:12.655Z,2.90
2018-01-03T00:50:40.119Z,3.00
2018-01-03T00:53:08.349Z,2.65
2018-01-03T00:55:35.908Z,3.90
2018-01-03T00:58:03.374Z,3.28
2018-01-03T01:00:30.898Z,2.97
2018-01-03T01:02:59.114Z,3.05
2018-01-03T01:05:26.591Z,3.35
2018-01-03T01:07:54.040Z,3.10
2018-01-03T01:10:22.351Z,2.90
2018-01-03T01:12:49.801Z,3.30
2018-01-03T01:15:17.252Z,2.58
2018-01-03T01:17:44.715Z,3.35
2018-01-03T01:20:12.175Z,3.00
2018-01-03T01:22:40.403Z,3.25
2018-01-03T01:25:07.889Z,3.85
2018-01-03T01:27:36.106Z,3.25
2018-01-03T01:30:03.668Z,2.85
2018-01-03T01:32:31.891Z,3.28
2018-01-03T01:34:59.367Z,3.22
2018-01-03T01:37:26.913Z,2.90
2018-01-03T01:39:55.139Z,3.00
2018-01-03T01:42:22.622Z,3.15
2018-01-03T01:44:50.851Z,2.50
2018-01-03T01:47:18.322Z,1.80
2018-01-03T01:49:46.556Z,1.70
2018-01-03T01:52:14.029Z,2.30
2018-01-03T01:54:42.255Z,2.00
2018-01-03T01:57:09.720Z,1.90
2018-01-03T01:59:37.962Z,2.70
2018-01-03T02:02:05.423Z,2.25
2018-01-03T02:04:33.682Z,2.12
2018-01-03T02:07:01.912Z,1.70
2018-01-03T02:09:29.363Z,1.60
2018-01-03T02:11:57.639Z,2.20
2018-01-03T02:14:25.094Z,1.70
2018-01-03T02:16:53.324Z,1.98
2018-01-03T02:19:20.787Z,2.17
2018-01-03T02:21:49.011Z,1.85
2018-01-03T02:24:16.596Z,1.77
2018-01-03T02:26:44.849Z,2.15
2018-01-03T02:29:12.390Z,2.17
2018-01-03T02:31:39.935Z,2.17
2018-01-03T02:34:08.204Z,2.30
2018-01-03T02:36:36.472Z,1.60
2018-01-03T02:39:04.820Z,1.87
2018-01-03T02:41:33.087Z,2.22
2018-01-03T02:44:01.343Z,2.35
2018-01-03T02:46:29.571Z,2.08
2018-01-03T02:48:57.143Z,2.28
2018-01-03T02:51:25.406Z,2.03
2018-01-03T02:53:53.668Z,2.37
2018-01-03T02:56:21.116Z,1.58
2018-01-03T02:58:49.339Z,1.83
2018-01-03T03:01:16.902Z,1.92
2018-01-03T03:03:44.451Z,2.00
2018-01-03T03:06:12.000Z,1.60
2018-01-03T03:08:40.219Z,1.50
2018-01-03T03:11:07.704Z,2.30
2018-01-03T03:13:35.956Z,2.15
2018-01-03T03:16:04.223Z,1.77
2018-01-03T03:18:32.484Z,1.40
2018-01-03T03:21:00.739Z,1.40
2018-01-03T03:23:28.996Z,1.40
2018-01-03T03:25:57.215Z,1.60
2018-01-03T03:28:24.699Z,1.30
2018-01-03T03:30:52.923Z,1.80
2018-01-03T03:33:20.395Z,1.90
2018-01-03T03:35:48.663Z,1.90
2018-01-03T03:38:16.895Z,1.58
2018-01-03T03:40:44.366Z,1.80
2018-01-03T03:43:12.624Z,1.85
2018-01-03T03:45:40.848Z,1.60
2018-01-03T03:48:08.328Z,1.60
2018-01-03T03:50:36.564Z,1.40
2018-01-03T03:53:04.023Z,1.50
2018-01-03T03:55:32.291Z,1.30
2018-01-03T03:58:00.609Z,0.95
2018-01-03T04:00:50.619Z,1.60
2018-01-03T04:03:18.875Z,1.20
2018-01-03T04:05:46.340Z,1.25
2018-01-03T04:08:13.859Z,1.10
2018-01-03T04:10:42.119Z,1.20
2018-01-03T04:13:09.664Z,1.15
2018-01-03T04:15:37.979Z,1.20
2018-01-03T04:18:05.471Z,1.30
2018-01-03T04:20:33.730Z,1.40
2018-01-03T04:23:01.988Z,1.30
2018-01-03T04:25:30.212Z,1.52
2018-01-03T04:27:57.672Z,1.67
2018-01-03T04:30:25.150Z,1.52
2018-01-03T04:32:53.368Z,1.90
2018-01-03T04:35:20.909Z,1.10
2018-01-03T04:37:48.384Z,0.80
2018-01-03T04:40:16.639Z,1.00
2018-01-03T04:42:44.859Z,1.00
2018-01-03T04:45:12.331Z,0.90
2018-01-03T04:47:39.791Z,0.90
2018-01-03T04:50:08.011Z,0.95
2018-01-03T04:52:35.470Z,1.10
2018-01-03T04:55:03.023Z,1.10
2018-01-03T04:57:31.250Z,1.48
2018-01-03T04:59:58.694Z,1.10
2018-01-03T05:02:26.168Z,1.00
2018-01-03T05:04:54.427Z,1.17
2018-01-03T05:07:22.647Z,1.15
2018-01-03T05:09:50.131Z,1.12
2018-01-03T05:12:18.351Z,1.45
2018-01-03T05:14:45.811Z,1.60
2018-01-03T05:17:13.379Z,2.15
2018-01-03T05:19:41.607Z,1.10
2018-01-03T05:22:09.060Z,1.55
2018-01-03T05:24:36.619Z,2.67
2018-01-03T05:27:04.848Z,1.30
2018-01-03T05:29:32.323Z,1.60
2018-01-03T05:32:00.556Z,1.80
2018-01-03T05:34:28.015Z,1.73
2018-01-03T05:36:55.560Z,1.35
2018-01-03T05:39:24.315Z,2.35
2018-01-03T05:41:51.830Z,1.62
2018-01-03T05:44:19.287Z,1.87
2018-01-03T05:46:46.777Z,1.67
2018-01-03T05:49:15.128Z,2.40
2018-01-03T05:51:43.383Z,1.50
2018-01-03T05:54:11.699Z,1.70
2018-01-03T05:56:39.151Z,1.40
2018-01-03T05:59:06.620Z,1.40
2018-01-03T06:01:34.111Z,1.52
2018-01-03T06:04:01.619Z,1.65
2018-01-03T06:09:34.180Z,2.00
2018-01-03T06:12:02.435Z,1.70
2018-01-03T06:14:30.679Z,2.20
2018-01-03T06:16:59.055Z,2.50
2018-01-03T06:19:27.283Z,2.40
2018-01-03T06:21:54.755Z,2.00
2018-01-03T06:24:22.211Z,2.85
2018-01-03T06:26:50.567Z,2.37
2018-01-03T06:29:18.825Z,2.28
2018-01-03T06:31:46.369Z,2.03
2018-01-03T06:34:14.592Z,2.30
2018-01-03T06:36:42.076Z,2.17
2018-01-03T06:39:10.335Z,3.25
2018-01-03T06:41:38.571Z,2.50
2018-01-03T06:44:06.028Z,2.75
2018-01-03T06:46:33.488Z,2.78
2018-01-03T06:49:01.730Z,2.55
2018-01-03T06:51:30.008Z,2.28
2018-01-03T06:53:58.256Z,3.00
2018-01-03T06:56:26.511Z,2.45
2018-01-03T06:58:54.744Z,3.55
2018-01-03T07:01:22.205Z,3.05
2018-01-03T07:03:49.682Z,2.62
2018-01-03T07:06:17.135Z,3.20
2018-01-03T07:08:44.598Z,3.03
2018-01-03T07:11:12.187Z,3.60
2018-01-03T07:13:40.404Z,2.65
2018-01-03T07:16:07.859Z,2.58
2018-01-03T07:18:35.430Z,2.30
2018-01-03T07:21:03.672Z,2.15
2018-01-03T07:23:31.241Z,2.28
2018-01-03T07:25:59.461Z,2.40
2018-01-03T07:28:26.917Z,2.65
2018-01-03T07:30:54.476Z,2.55
2018-01-03T07:33:22.719Z,2.17
2018-01-03T07:35:50.171Z,2.40
2018-01-03T07:38:18.437Z,1.92
2018-01-03T07:40:46.695Z,2.00
2018-01-03T07:43:14.920Z,2.75
2018-01-03T07:45:42.402Z,2.45
2018-01-03T07:48:10.659Z,2.00
2018-01-03T07:50:38.922Z,3.30
2018-01-03T07:53:07.143Z,2.22
2018-01-03T07:55:34.620Z,2.20
2018-01-03T07:58:02.850Z,1.80
2018-01-03T08:00:30.423Z,1.90
2018-01-03T08:02:58.650Z,2.20
2018-01-03T08:05:26.101Z,2.75
2018-01-03T08:07:53.673Z,2.17
2018-01-03T08:10:21.928Z,1.83
2018-01-03T08:12:50.181Z,2.92
2018-01-03T08:15:17.732Z,1.35
2018-01-03T08:17:45.191Z,1.65
2018-01-03T08:20:13.438Z,1.48
2018-01-03T08:22:41.657Z,1.98
2018-01-03T08:25:09.139Z,1.90
2018-01-03T08:27:37.399Z,1.20
2018-01-03T08:30:05.676Z,1.40
2018-01-03T08:32:33.908Z,1.27
2018-01-03T08:35:01.463Z,1.58
2018-01-03T08:37:29.688Z,1.48
2018-01-03T08:39:57.144Z,2.30
2018-01-03T08:42:24.707Z,1.50
2018-01-03T08:44:52.936Z,1.30
2018-01-03T08:47:20.387Z,1.30
2018-01-03T08:49:47.849Z,1.62
2018-01-03T08:52:16.114Z,1.90
2018-01-03T08:54:44.340Z,1.50
2018-01-03T08:57:11.791Z,1.50
2018-01-03T08:59:39.256Z,2.65
2018-01-03T09:02:07.512Z,1.65
2018-01-03T09:04:35.772Z,2.47
2018-01-03T09:07:03.996Z,1.60
2018-01-03T09:09:31.452Z,1.30
2018-01-03T09:11:58.920Z,3.10
2018-01-03T09:14:27.164Z,2.35
2018-01-03T09:16:54.628Z,3.40
2018-01-03T09:19:22.855Z,2.62
2018-01-03T09:21:50.415Z,2.30
2018-01-03T09:24:18.683Z,1.98
2018-01-03T09:26:46.940Z,2.17
2018-01-03T09:29:15.204Z,1.92
2018-01-03T09:31:43.432Z,1.85
2018-01-03T09:34:10.880Z,2.72
2018-01-03T09:36:38.451Z,1.80
2018-01-03T09:39:06.707Z,2.05
2018-01-03T09:41:34.928Z,2.67
2018-01-03T09:44:02.393Z,1.87
2018-01-03T09:46:31.383Z,2.45
2018-01-03T09:48:59.648Z,1.92
2018-01-03T09:51:27.899Z,3.00
2018-01-03T09:53:56.172Z,2.83
2018-01-03T09:56:24.391Z,3.50
2018-01-03T09:58:51.859Z,2.72
2018-01-03T10:01:19.317Z,3.12
2018-01-03T10:03:47.667Z,2.80
2018-01-03T10:06:15.891Z,2.33
2018-01-03T10:08:43.376Z,3.42
2018-01-03T10:11:11.632Z,3.47
2018-01-03T10:13:39.891Z,3.33
2018-01-03T10:16:08.110Z,3.20
2018-01-03T10:18:35.593Z,3.35
2018-01-03T10:21:03.851Z,2.85
2018-01-03T10:23:32.075Z,4.22
2018-01-03T10:25:59.556Z,4.82
2018-01-03T10:28:27.812Z,2.40
2018-01-03T10:30:56.074Z,3.08
2018-01-03T10:33:24.320Z,2.87
2018-01-03T10:35:51.780Z,3.05
2018-01-03T10:38:20.000Z,2.45
2018-01-03T10:40:47.475Z,3.35
2018-01-03T10:43:15.691Z,3.25
2018-01-03T10:45:43.179Z,2.47
2018-01-03T10:48:11.411Z,3.05
2018-01-03T10:50:38.875Z,2.97
2018-01-03T10:53:06.355Z,3.05
2018-01-03T10:55:33.803Z,2.30
2018-01-03T10:58:01.311Z,2.75
2018-01-03T11:00:29.568Z,2.90
2018-01-03T11:02:57.831Z,3.50
2018-01-03T11:05:26.056Z,3.37
2018-01-03T11:07:53.534Z,3.17
2018-01-03T11:10:21.759Z,2.45
2018-01-03T11:12:49.235Z,3.45
2018-01-03T11:15:17.591Z,2.83
2018-01-03T11:17:45.957Z,3.70
2018-01-03T11:20:14.184Z,2.75
2018-01-03T11:22:41.655Z,2.37
2018-01-03T11:25:09.901Z,2.80
2018-01-03T11:27:37.363Z,3.00
2018-01-03T11:30:05.576Z,2.65
2018-01-03T11:32:33.035Z,2.47
2018-01-03T11:35:00.601Z,2.03
2018-01-03T11:37:28.859Z,2.47
2018-01-03T11:39:57.131Z,2.55
2018-01-03T11:42:25.384Z,2.50
2018-01-03T11:44:53.640Z,2.83
2018-01-03T11:47:21.903Z,1.92
2018-01-03T11:49:50.167Z,2.90
2018-01-03T11:52:18.392Z,1.80
2018-01-03T11:54:45.849Z,3.08
2018-01-03T11:57:13.309Z,2.67
2018-01-03T11:59:41.571Z,2.60
2018-01-03T12:02:09.821Z,2.50
2018-01-03T12:04:37.271Z,3.08
2018-01-03T12:07:05.524Z,2.40
2018-01-03T12:09:33.067Z,1.90
2018-01-03T12:12:01.293Z,1.90
2018-01-03T12:14:28.768Z,2.03
2018-01-03T12:16:57.391Z,2.03
2018-01-03T12:19:24.837Z,1.92
2018-01-03T12:21:52.325Z,1.70
2018-01-03T12:24:20.580Z,1.80
2018-01-03T12:26:48.844Z,2.37
2018-01-03T12:29:17.081Z,1.95
2018-01-03T12:31:46.039Z,1.98
2018-01-03T12:34:13.520Z,2.12
2018-01-03T12:36:41.784Z,2.10
2018-01-03T12:39:10.012Z,2.50
2018-01-03T12:41:37.483Z,3.12
2018-01-03T12:44:05.797Z,2.70
2018-01-03T12:46:33.251Z,2.75
2018-01-03T12:49:00.729Z,2.22
2018-01-03T12:51:28.963Z,1.90
2018-01-03T12:53:56.411Z,2.85
2018-01-03T12:56:25.409Z,3.20
2018-01-03T12:58:53.628Z,3.30
2018-01-03T13:01:21.098Z,2.85
2018-01-03T13:03:48.578Z,1.98
2018-01-03T13:06:16.037Z,2.22
2018-01-03T13:08:43.498Z,2.40
2018-01-03T13:11:11.083Z,2.97
2018-01-03T13:13:39.307Z,2.62
2018-01-03T13:16:06.770Z,3.78
2018-01-03T13:18:34.229Z,3.85
2018-01-03T13:21:02.452Z,3.17
2018-01-03T13:23:29.922Z,2.75
2018-01-03T13:25:58.151Z,3.28
2018-01-03T13:28:25.723Z,3.42
2018-01-03T13:30:53.987Z,2.80
2018-01-03T13:33:22.244Z,3.05
2018-01-03T13:35:50.483Z,2.37
2018-01-03T13:38:18.046Z,2.22
2018-01-03T13:40:45.504Z,4.00
2018-01-03T13:43:13.752Z,4.10
2018-01-03T13:45:42.012Z,2.55
2018-01-03T13:48:10.272Z,4.22
2018-01-03T13:50:38.500Z,3.28
2018-01-03T13:53:05.960Z,4.62
2018-01-03T13:55:33.427Z,3.05
2018-01-03T13:58:01.668Z,4.65
2018-01-03T14:00:29.128Z,3.75
2018-01-03T14:02:57.384Z,3.00
2018-01-03T14:05:25.627Z,2.95
2018-01-03T14:07:53.082Z,2.78
2018-01-03T14:10:21.312Z,3.40
2018-01-03T14:12:48.875Z,5.25
2018-01-03T14:15:17.140Z,3.65
2018-01-03T14:17:45.373Z,2.25
2018-01-03T14:20:12.849Z,3.80
2018-01-03T14:22:41.155Z,2.47
2018-01-03T14:25:08.648Z,4.32
2018-01-03T14:27:36.887Z,3.72
2018-01-03T14:30:04.451Z,3.20
2018-01-03T14:32:32.680Z,3.10
2018-01-03T14:35:00.260Z,4.18
2018-01-03T14:37:28.489Z,3.65
2018-01-03T14:39:55.956Z,3.87
2018-01-03T14:42:24.190Z,4.30
2018-01-03T14:44:51.755Z,3.97
2018-01-03T14:47:20.018Z,3.50
2018-01-03T14:49:48.286Z,4.47
2018-01-03T14:52:16.512Z,3.12
2018-01-03T14:54:43.975Z,3.00
2018-01-03T14:57:11.576Z,2.60
2018-01-03T14:59:39.029Z,3.92
2018-01-03T15:02:06.488Z,3.25
2018-01-03T15:04:33.968Z,2.90
2018-01-03T15:07:01.596Z,2.80
2018-01-03T15:09:29.819Z,3.30
2018-01-03T15:11:57.395Z,3.37
2018-01-03T15:14:25.659Z,3.20
2018-01-03T15:16:53.971Z,3.25
2018-01-03T15:19:21.476Z,3.97
2018-01-03T15:21:49.726Z,2.87
2018-01-03T15:24:17.267Z,3.28
2018-01-03T15:26:45.524Z,2.62
2018-01-03T15:29:14.503Z,3.45
2018-01-03T15:31:42.724Z,4.75
2018-01-03T15:34:10.188Z,4.30
2018-01-03T15:36:37.659Z,2.75
2018-01-03T15:39:05.876Z,3.65
2018-01-03T15:41:33.329Z,3.17
2018-01-03T15:44:00.892Z,3.90
2018-01-03T15:46:30.044Z,2.67
2018-01-03T15:48:57.512Z,5.37
2018-01-03T15:51:25.735Z,3.85
2018-01-03T15:53:53.224Z,2.85
2018-01-03T15:56:21.450Z,2.20
2018-01-03T15:58:48.907Z,6.43
2018-01-03T16:01:16.466Z,4.35
2018-01-03T16:03:44.685Z,3.03
2018-01-03T16:06:12.143Z,4.10
2018-01-03T16:08:39.705Z,3.80
2018-01-03T16:11:07.971Z,4.07
2018-01-03T16:13:36.227Z,3.55
2018-01-03T16:16:04.488Z,4.40
2018-01-03T16:18:32.747Z,3.47
2018-01-03T16:21:00.971Z,5.15
2018-01-03T16:23:28.429Z,4.03
2018-01-03T16:25:55.994Z,3.70
2018-01-03T16:28:24.247Z,3.20
2018-01-03T16:30:52.507Z,3.17
2018-01-03T16:33:20.775Z,3.37
2018-01-03T16:35:48.997Z,4.05
2018-01-03T16:38:16.475Z,3.80
2018-01-03T16:40:44.733Z,3.70
2018-01-03T16:43:12.977Z,4.40
2018-01-03T16:45:40.444Z,4.45
2018-01-03T16:48:08.673Z,5.47
2018-01-03T16:50:36.236Z,4.40
2018-01-03T16:53:04.507Z,2.97
2018-01-03T16:55:32.766Z,5.20
2018-01-03T16:58:01.039Z,3.72
2018-01-03T17:00:29.287Z,4.87
2018-01-03T17:02:57.550Z,4.37
2018-01-03T17:05:25.084Z,4.37
2018-01-03T17:07:53.347Z,3.80
2018-01-03T17:10:21.612Z,4.00
2018-01-03T17:12:49.846Z,3.62
2018-01-03T17:15:17.315Z,2.92
2018-01-03T17:17:45.572Z,4.05
2018-01-03T17:20:13.816Z,4.68
2018-01-03T17:22:42.241Z,4.05
2018-01-03T17:25:09.768Z,3.80
2018-01-03T17:27:37.277Z,4.47
2018-01-03T17:30:05.541Z,5.97
2018-01-03T17:32:33.811Z,4.45
2018-01-03T17:35:02.037Z,4.43
2018-01-03T17:37:29.567Z,3.83
2018-01-03T17:39:57.091Z,3.33
2018-01-03T17:42:24.577Z,4.12
2018-01-03T17:44:52.075Z,4.30
2018-01-03T17:47:19.532Z,3.78
2018-01-03T17:49:47.113Z,3.90
2018-01-03T17:52:15.395Z,4.22
2018-01-03T17:54:42.859Z,4.72
2018-01-03T17:57:10.336Z,4.68
2018-01-03T17:59:37.809Z,4.10
2018-01-03T18:02:06.035Z,3.40
2018-01-03T18:04:33.607Z,4.78
2018-01-03T18:07:01.837Z,4.68
2018-01-03T18:09:29.337Z,4.15
2018-01-03T18:11:57.581Z,3.05
2018-01-03T18:14:25.134Z,3.92
2018-01-03T18:16:53.356Z,4.65
2018-01-03T18:19:20.837Z,3.67
2018-01-03T18:21:49.104Z,3.90
2018-01-03T18:24:17.340Z,3.25
2018-01-03T18:29:35.278Z,2.80
2018-01-03T18:32:03.505Z,3.58
2018-01-03T18:34:30.975Z,2.80
2018-01-03T18:36:59.201Z,1.65
2018-01-03T18:39:26.656Z,3.42
2018-01-03T18:41:54.118Z,2.40
2018-01-03T18:44:22.362Z,2.35
2018-01-03T18:46:49.973Z,2.15
2018-01-03T18:49:17.427Z,3.47
2018-01-03T18:51:45.061Z,2.20
2018-01-03T18:54:12.558Z,3.00
2018-01-03T18:56:40.807Z,2.83
2018-01-03T18:59:09.071Z,3.28
2018-01-03T19:01:37.320Z,2.62
2018-01-03T19:04:04.871Z,2.45
2018-01-03T19:06:32.323Z,2.85
2018-01-03T19:09:00.581Z,3.90
2018-01-03T19:11:28.831Z,3.35
2018-01-03T19:13:56.383Z,3.30
2018-01-03T19:16:24.659Z,3.08
2018-01-03T19:18:52.187Z,3.58
2018-01-03T19:21:20.408Z,4.32
2018-01-03T19:23:47.870Z,4.00
2018-01-03T19:26:15.430Z,3.72
2018-01-03T19:28:43.687Z,4.07
2018-01-03T19:31:11.965Z,3.95
2018-01-03T19:33:40.227Z,4.18
2018-01-03T19:36:08.503Z,6.50
2018-01-03T19:38:36.735Z,4.03
2018-01-03T19:41:05.006Z,3.30
2018-01-03T19:43:33.227Z,4.28
2018-01-03T19:46:00.804Z,5.05
2018-01-03T19:48:29.054Z,5.20
2018-01-03T19:50:57.367Z,3.83
2018-01-03T19:53:24.820Z,3.95
2018-01-03T19:55:52.280Z,3.87
2018-01-03T19:58:19.840Z,3.55
2018-01-03T20:00:48.079Z,3.85
2018-01-03T20:03:15.544Z,2.42
2018-01-03T20:05:43.805Z,4.97
2018-01-03T20:08:12.044Z,3.33
2018-01-03T20:10:39.508Z,2.95
2018-01-03T20:13:07.771Z,4.50
2018-01-03T20:15:36.024Z,4.15
2018-01-03T20:18:04.289Z,4.20
2018-01-03T20:20:32.548Z,4.68
2018-01-03T20:23:00.811Z,4.72
2018-01-03T20:25:29.068Z,3.62
2018-01-03T20:27:57.379Z,5.47
2018-01-03T20:30:24.885Z,3.35
2018-01-03T20:32:53.107Z,3.20
2018-01-03T20:35:20.578Z,3.70
2018-01-03T20:37:48.813Z,4.82
2018-01-03T20:40:17.067Z,4.40
2018-01-03T20:42:45.320Z,4.00
2018-01-03T20:45:12.778Z,4.10
2018-01-03T20:47:41.005Z,3.20
2018-01-03T20:50:08.468Z,4.28
2018-01-03T20:52:36.717Z,3.40
2018-01-03T20:55:04.179Z,3.95
2018-01-03T20:57:32.431Z,4.95
2018-01-03T21:00:00.691Z,4.05
2018-01-03T21:02:28.954Z,3.85
2018-01-03T21:04:56.503Z,3.85
2018-01-03T21:07:24.740Z,4.00
2018-01-03T21:09:52.304Z,4.12
2018-01-03T21:12:20.527Z,4.37
2018-01-03T21:14:47.996Z,3.05
2018-01-03T21:17:15.471Z,4.05
2018-01-03T21:19:42.984Z,5.10
2018-01-03T21:22:11.247Z,5.32
2018-01-03T21:24:39.484Z,4.75
2018-01-03T21:27:07.051Z,4.87
2018-01-03T21:29:35.568Z,4.55
2018-01-03T21:32:03.059Z,4.65
2018-01-03T21:34:31.320Z,5.20
2018-01-03T21:36:59.656Z,4.05
2018-01-03T21:42:19.327Z,5.40
2018-01-03T21:44:46.799Z,4.65
2018-01-03T21:47:14.251Z,1.92
2018-01-03T21:49:41.782Z,2.60
2018-01-03T21:52:10.043Z,3.28
2018-01-03T21:57:30.040Z,4.53
2018-01-03T21:59:57.523Z,4.20
2018-01-03T22:02:25.891Z,3.87
2018-01-03T22:07:46.571Z,4.05
2018-01-03T22:10:14.133Z,7.00
2018-01-03T22:15:34.459Z,6.70
2018-01-03T22:18:02.000Z,5.07
2018-01-03T22:20:29.460Z,4.87
2018-01-03T22:22:56.935Z,5.50
2018-01-03T22:25:25.244Z,4.68
2018-01-03T22:27:52.696Z,5.80
2018-01-03T22:30:20.281Z,5.62
2018-01-03T22:32:48.511Z,7.05
2018-01-03T22:35:15.973Z,5.30
2018-01-03T22:37:43.463Z,4.65
2018-01-03T22:40:10.969Z,7.15
2018-01-03T22:42:39.193Z,6.12
2018-01-03T22:45:06.671Z,6.10
2018-01-03T22:47:34.927Z,5.80
2018-01-03T22:50:03.155Z,7.20
2018-01-03T22:52:30.631Z,7.28
2018-01-03T22:54:58.913Z,6.00
2018-01-03T22:57:27.119Z,6.35
2018-01-03T22:59:54.579Z,6.35
2018-01-03T23:02:22.063Z,5.60
2018-01-03T23:04:50.304Z,6.25
2018-01-03T23:07:17.771Z,6.03
2018-01-03T23:09:45.998Z,6.20
2018-01-03T23:12:13.563Z,6.80
2018-01-03T23:14:41.828Z,6.72
2018-01-03T23:17:10.138Z,7.78
2018-01-03T23:19:37.612Z,6.65
2018-01-03T23:22:05.176Z,7.00
2018-01-03T23:24:33.400Z,7.12
2018-01-03T23:27:00.871Z,6.28
2018-01-03T23:29:29.100Z,7.22
2018-01-03T23:31:56.590Z,6.62
2018-01-03T23:34:24.839Z,7.05
2018-01-03T23:36:53.095Z,8.00
2018-01-03T23:39:21.360Z,8.40
2018-01-03T23:41:49.672Z,7.40
2018-01-03T23:44:17.124Z,8.85
2018-01-03T23:46:44.588Z,8.30
2018-01-03T23:49:12.144Z,8.20
2018-01-03T23:51:40.404Z,9.00
2018-01-03T23:54:08.624Z,6.90
2018-01-03T23:56:36.090Z,8.93
2018-01-03T23:59:04.317Z,8.82
